sensor_id;sensor_type;location;lat;lon;timestamp;P1;durP1;ratioP1;P2;durP2;ratioP2
151;SDS011;68;48.792;9.164;2022-12-07T00:00:12;23.10;;;14.25;;
151;SDS011;68;48.792;9.164;2022-12-07T00:02:39;20.65;;;14.40;;
151;SDS011;68;48.792;9.164;2022-12-07T00:05:07;23.85;;;15.23;;
151;SDS011;68;48.792;9.164;2022-12-07T00:07:35;22.02;;;14.57;;
151;SDS011;68;48.792;9.164;2022-12-07T00:10:02;19.70;;;13.63;;
151;SDS011;68;48.792;9.164;2022-12-07T00:12:29;19.98;;;13.68;;
151;SDS011;68;48.792;9.164;2022-12-07T00:14:56;19.83;;;14.05;;
151;SDS011;68;48.792;9.164;2022-12-07T00:17:22;21.20;;;14.15;;
151;SDS011;68;48.792;9.164;2022-12-07T00:19:49;21.67;;;14.57;;
151;SDS011;68;48.792;9.164;2022-12-07T00:22:16;20.13;;;14.13;;
151;SDS011;68;48.792;9.164;2022-12-07T00:24:44;22.08;;;15.13;;
151;SDS011;68;48.792;9.164;2022-12-07T00:27:11;21.45;;;15.20;;
151;SDS011;68;48.792;9.164;2022-12-07T00:29:38;23.75;;;16.00;;
151;SDS011;68;48.792;9.164;2022-12-07T00:32:05;23.95;;;16.20;;
151;SDS011;68;48.792;9.164;2022-12-07T00:34:31;24.13;;;15.75;;
151;SDS011;68;48.792;9.164;2022-12-07T00:36:58;21.50;;;15.57;;
151;SDS011;68;48.792;9.164;2022-12-07T00:39:25;22.08;;;15.48;;
151;SDS011;68;48.792;9.164;2022-12-07T00:41:53;23.67;;;16.67;;
151;SDS011;68;48.792;9.164;2022-12-07T00:44:19;20.95;;;15.38;;
151;SDS011;68;48.792;9.164;2022-12-07T00:46:46;24.65;;;15.30;;
151;SDS011;68;48.792;9.164;2022-12-07T00:49:15;23.80;;;15.73;;
151;SDS011;68;48.792;9.164;2022-12-07T00:51:42;20.90;;;15.30;;
151;SDS011;68;48.792;9.164;2022-12-07T00:54:08;21.63;;;14.88;;
151;SDS011;68;48.792;9.164;2022-12-07T00:56:35;20.35;;;14.80;;
151;SDS011;68;48.792;9.164;2022-12-07T00:59:03;24.98;;;16.30;;
151;SDS011;68;48.792;9.164;2022-12-07T01:01:31;24.95;;;15.80;;
151;SDS011;68;48.792;9.164;2022-12-07T01:03:59;21.80;;;15.43;;
151;SDS011;68;48.792;9.164;2022-12-07T01:06:27;23.17;;;14.80;;
151;SDS011;68;48.792;9.164;2022-12-07T01:08:54;22.60;;;16.02;;
151;SDS011;68;48.792;9.164;2022-12-07T01:11:23;25.60;;;16.33;;
151;SDS011;68;48.792;9.164;2022-12-07T01:13:51;25.13;;;16.65;;
151;SDS011;68;48.792;9.164;2022-12-07T01:16:21;22.73;;;15.70;;
151;SDS011;68;48.792;9.164;2022-12-07T01:18:50;28.30;;;16.65;;
151;SDS011;68;48.792;9.164;2022-12-07T01:21:21;25.10;;;17.15;;
151;SDS011;68;48.792;9.164;2022-12-07T01:23:49;23.20;;;16.40;;
151;SDS011;68;48.792;9.164;2022-12-07T01:26:17;24.10;;;16.50;;
151;SDS011;68;48.792;9.164;2022-12-07T01:28:46;22.90;;;15.48;;
151;SDS011;68;48.792;9.164;2022-12-07T01:31:13;21.95;;;14.52;;
151;SDS011;68;48.792;9.164;2022-12-07T01:33:44;24.70;;;16.35;;
151;SDS011;68;48.792;9.164;2022-12-07T01:36:14;22.02;;;16.02;;
151;SDS011;68;48.792;9.164;2022-12-07T01:38:43;22.73;;;15.60;;
151;SDS011;68;48.792;9.164;2022-12-07T01:41:10;24.45;;;15.40;;
151;SDS011;68;48.792;9.164;2022-12-07T01:44:06;24.50;;;15.25;;
151;SDS011;68;48.792;9.164;2022-12-07T01:46:41;21.70;;;15.30;;
151;SDS011;68;48.792;9.164;2022-12-07T01:49:09;20.80;;;14.70;;
151;SDS011;68;48.792;9.164;2022-12-07T01:51:40;21.30;;;15.57;;
151;SDS011;68;48.792;9.164;2022-12-07T01:54:09;22.55;;;14.85;;
151;SDS011;68;48.792;9.164;2022-12-07T01:56:38;23.52;;;15.75;;
151;SDS011;68;48.792;9.164;2022-12-07T01:59:08;20.23;;;14.40;;
151;SDS011;68;48.792;9.164;2022-12-07T02:01:37;19.48;;;14.00;;
151;SDS011;68;48.792;9.164;2022-12-07T02:04:03;19.58;;;13.55;;
151;SDS011;68;48.792;9.164;2022-12-07T02:06:31;22.58;;;14.35;;
151;SDS011;68;48.792;9.164;2022-12-07T02:08:59;20.90;;;14.05;;
151;SDS011;68;48.792;9.164;2022-12-07T02:11:25;22.98;;;14.68;;
151;SDS011;68;48.792;9.164;2022-12-07T02:13:52;22.58;;;13.98;;
151;SDS011;68;48.792;9.164;2022-12-07T02:16:23;23.08;;;15.20;;
151;SDS011;68;48.792;9.164;2022-12-07T02:19:03;23.13;;;14.88;;
151;SDS011;68;48.792;9.164;2022-12-07T02:21:48;21.30;;;14.82;;
151;SDS011;68;48.792;9.164;2022-12-07T02:24:25;22.65;;;15.70;;
151;SDS011;68;48.792;9.164;2022-12-07T02:27:08;22.13;;;14.10;;
151;SDS011;68;48.792;9.164;2022-12-07T02:29:45;23.15;;;15.45;;
151;SDS011;68;48.792;9.164;2022-12-07T02:32:16;22.95;;;14.23;;
151;SDS011;68;48.792;9.164;2022-12-07T02:34:48;20.88;;;14.95;;
151;SDS011;68;48.792;9.164;2022-12-07T02:37:24;21.15;;;14.52;;
151;SDS011;68;48.792;9.164;2022-12-07T02:40:01;23.30;;;14.88;;
151;SDS011;68;48.792;9.164;2022-12-07T02:42:36;20.83;;;14.18;;
151;SDS011;68;48.792;9.164;2022-12-07T02:45:07;21.23;;;14.20;;
151;SDS011;68;48.792;9.164;2022-12-07T02:47:36;24.02;;;14.95;;
151;SDS011;68;48.792;9.164;2022-12-07T02:50:04;20.63;;;14.23;;
151;SDS011;68;48.792;9.164;2022-12-07T02:52:32;19.77;;;14.70;;
151;SDS011;68;48.792;9.164;2022-12-07T02:54:59;22.05;;;13.25;;
151;SDS011;68;48.792;9.164;2022-12-07T02:57:29;21.70;;;14.88;;
151;SDS011;68;48.792;9.164;2022-12-07T03:00:09;22.00;;;14.50;;
151;SDS011;68;48.792;9.164;2022-12-07T03:02:42;23.20;;;14.82;;
151;SDS011;68;48.792;9.164;2022-12-07T03:05:30;20.73;;;13.70;;
151;SDS011;68;48.792;9.164;2022-12-07T03:08:17;20.33;;;13.82;;
151;SDS011;68;48.792;9.164;2022-12-07T03:10:53;20.42;;;13.70;;
151;SDS011;68;48.792;9.164;2022-12-07T03:13:24;21.80;;;14.40;;
151;SDS011;68;48.792;9.164;2022-12-07T03:15:57;19.00;;;13.73;;
151;SDS011;68;48.792;9.164;2022-12-07T03:18:29;21.13;;;14.05;;
151;SDS011;68;48.792;9.164;2022-12-07T03:20:59;19.88;;;13.85;;
151;SDS011;68;48.792;9.164;2022-12-07T03:23:30;18.38;;;13.30;;
151;SDS011;68;48.792;9.164;2022-12-07T03:26:01;19.27;;;13.80;;
151;SDS011;68;48.792;9.164;2022-12-07T03:28:31;19.40;;;13.50;;
151;SDS011;68;48.792;9.164;2022-12-07T03:31:02;20.58;;;13.80;;
151;SDS011;68;48.792;9.164;2022-12-07T03:33:32;17.83;;;13.27;;
151;SDS011;68;48.792;9.164;2022-12-07T03:36:04;16.88;;;12.27;;
151;SDS011;68;48.792;9.164;2022-12-07T03:38:36;19.25;;;13.27;;
151;SDS011;68;48.792;9.164;2022-12-07T03:41:08;19.77;;;13.77;;
151;SDS011;68;48.792;9.164;2022-12-07T03:43:38;18.25;;;13.20;;
151;SDS011;68;48.792;9.164;2022-12-07T03:46:09;18.20;;;12.13;;
151;SDS011;68;48.792;9.164;2022-12-07T03:48:46;18.10;;;12.85;;
151;SDS011;68;48.792;9.164;2022-12-07T03:51:21;19.77;;;13.50;;
151;SDS011;68;48.792;9.164;2022-12-07T03:53:53;18.55;;;12.70;;
151;SDS011;68;48.792;9.164;2022-12-07T03:56:25;17.83;;;12.70;;
151;SDS011;68;48.792;9.164;2022-12-07T03:58:53;18.33;;;12.85;;
151;SDS011;68;48.792;9.164;2022-12-07T04:01:23;21.40;;;13.38;;
151;SDS011;68;48.792;9.164;2022-12-07T04:03:50;18.50;;;13.30;;
151;SDS011;68;48.792;9.164;2022-12-07T04:06:17;18.35;;;12.68;;
151;SDS011;68;48.792;9.164;2022-12-07T04:08:43;19.38;;;13.18;;
151;SDS011;68;48.792;9.164;2022-12-07T04:11:10;18.30;;;13.30;;
151;SDS011;68;48.792;9.164;2022-12-07T04:13:37;19.38;;;12.90;;
151;SDS011;68;48.792;9.164;2022-12-07T04:16:18;16.98;;;12.30;;
151;SDS011;68;48.792;9.164;2022-12-07T04:18:46;17.98;;;13.00;;
151;SDS011;68;48.792;9.164;2022-12-07T04:21:12;18.50;;;12.63;;
151;SDS011;68;48.792;9.164;2022-12-07T04:23:39;18.70;;;13.10;;
151;SDS011;68;48.792;9.164;2022-12-07T04:26:06;17.83;;;12.55;;
151;SDS011;68;48.792;9.164;2022-12-07T04:28:33;16.50;;;12.05;;
151;SDS011;68;48.792;9.164;2022-12-07T04:30:59;21.45;;;13.65;;
151;SDS011;68;48.792;9.164;2022-12-07T04:33:26;17.35;;;12.63;;
151;SDS011;68;48.792;9.164;2022-12-07T04:35:54;18.70;;;12.25;;
151;SDS011;68;48.792;9.164;2022-12-07T04:38:21;17.88;;;12.40;;
151;SDS011;68;48.792;9.164;2022-12-07T04:40:48;19.05;;;12.18;;
151;SDS011;68;48.792;9.164;2022-12-07T04:43:14;15.35;;;11.00;;
151;SDS011;68;48.792;9.164;2022-12-07T04:45:44;15.00;;;10.98;;
151;SDS011;68;48.792;9.164;2022-12-07T04:48:12;16.17;;;10.35;;
151;SDS011;68;48.792;9.164;2022-12-07T04:50:38;15.07;;;10.43;;
151;SDS011;68;48.792;9.164;2022-12-07T04:53:07;12.48;;;9.27;;
151;SDS011;68;48.792;9.164;2022-12-07T04:55:33;13.07;;;9.40;;
151;SDS011;68;48.792;9.164;2022-12-07T04:58:00;10.90;;;8.25;;
151;SDS011;68;48.792;9.164;2022-12-07T05:00:27;10.40;;;7.88;;
151;SDS011;68;48.792;9.164;2022-12-07T05:02:54;10.70;;;8.05;;
151;SDS011;68;48.792;9.164;2022-12-07T05:05:20;10.00;;;7.30;;
151;SDS011;68;48.792;9.164;2022-12-07T05:07:47;9.63;;;7.70;;
151;SDS011;68;48.792;9.164;2022-12-07T05:10:15;8.70;;;6.78;;
151;SDS011;68;48.792;9.164;2022-12-07T05:12:42;9.25;;;7.30;;
151;SDS011;68;48.792;9.164;2022-12-07T05:15:10;10.48;;;7.40;;
151;SDS011;68;48.792;9.164;2022-12-07T05:17:37;9.30;;;7.05;;
151;SDS011;68;48.792;9.164;2022-12-07T05:20:04;11.32;;;7.75;;
151;SDS011;68;48.792;9.164;2022-12-07T05:22:32;10.02;;;7.28;;
151;SDS011;68;48.792;9.164;2022-12-07T05:24:59;11.00;;;7.80;;
151;SDS011;68;48.792;9.164;2022-12-07T05:27:27;10.02;;;7.30;;
151;SDS011;68;48.792;9.164;2022-12-07T05:29:54;9.65;;;7.03;;
151;SDS011;68;48.792;9.164;2022-12-07T05:32:20;10.27;;;7.38;;
151;SDS011;68;48.792;9.164;2022-12-07T05:34:47;10.20;;;7.65;;
151;SDS011;68;48.792;9.164;2022-12-07T05:37:14;13.77;;;8.70;;
151;SDS011;68;48.792;9.164;2022-12-07T05:39:41;12.52;;;9.18;;
151;SDS011;68;48.792;9.164;2022-12-07T05:42:08;15.25;;;9.35;;
151;SDS011;68;48.792;9.164;2022-12-07T05:44:39;12.90;;;10.27;;
151;SDS011;68;48.792;9.164;2022-12-07T05:47:07;12.23;;;9.15;;
151;SDS011;68;48.792;9.164;2022-12-07T05:49:34;14.15;;;10.20;;
151;SDS011;68;48.792;9.164;2022-12-07T05:52:00;14.88;;;10.32;;
151;SDS011;68;48.792;9.164;2022-12-07T05:54:27;13.50;;;9.77;;
151;SDS011;68;48.792;9.164;2022-12-07T05:56:54;14.40;;;10.20;;
151;SDS011;68;48.792;9.164;2022-12-07T05:59:21;15.35;;;11.13;;
151;SDS011;68;48.792;9.164;2022-12-07T06:01:48;13.87;;;10.20;;
151;SDS011;68;48.792;9.164;2022-12-07T06:04:15;15.95;;;9.95;;
151;SDS011;68;48.792;9.164;2022-12-07T06:06:43;15.32;;;10.38;;
151;SDS011;68;48.792;9.164;2022-12-07T06:09:10;13.70;;;9.80;;
151;SDS011;68;48.792;9.164;2022-12-07T06:11:38;14.45;;;10.13;;
151;SDS011;68;48.792;9.164;2022-12-07T06:14:22;14.60;;;10.30;;
151;SDS011;68;48.792;9.164;2022-12-07T06:16:50;15.15;;;9.68;;
151;SDS011;68;48.792;9.164;2022-12-07T06:19:17;14.20;;;10.68;;
151;SDS011;68;48.792;9.164;2022-12-07T06:21:44;13.43;;;10.40;;
151;SDS011;68;48.792;9.164;2022-12-07T06:24:11;15.98;;;10.90;;
151;SDS011;68;48.792;9.164;2022-12-07T06:26:39;15.52;;;9.82;;
151;SDS011;68;48.792;9.164;2022-12-07T06:29:06;16.27;;;10.38;;
151;SDS011;68;48.792;9.164;2022-12-07T06:31:34;15.95;;;10.93;;
151;SDS011;68;48.792;9.164;2022-12-07T06:34:04;14.80;;;9.77;;
151;SDS011;68;48.792;9.164;2022-12-07T06:36:31;16.33;;;10.20;;
151;SDS011;68;48.792;9.164;2022-12-07T06:38:59;13.95;;;9.63;;
151;SDS011;68;48.792;9.164;2022-12-07T06:41:25;14.27;;;10.75;;
151;SDS011;68;48.792;9.164;2022-12-07T06:43:52;15.13;;;11.25;;
151;SDS011;68;48.792;9.164;2022-12-07T06:46:19;14.07;;;10.25;;
151;SDS011;68;48.792;9.164;2022-12-07T06:48:46;16.75;;;10.73;;
151;SDS011;68;48.792;9.164;2022-12-07T06:51:14;12.70;;;10.10;;
151;SDS011;68;48.792;9.164;2022-12-07T06:53:41;15.07;;;10.25;;
151;SDS011;68;48.792;9.164;2022-12-07T06:56:08;13.50;;;9.93;;
151;SDS011;68;48.792;9.164;2022-12-07T06:58:34;16.20;;;10.55;;
151;SDS011;68;48.792;9.164;2022-12-07T07:01:02;14.70;;;9.88;;
151;SDS011;68;48.792;9.164;2022-12-07T07:03:29;13.10;;;9.30;;
151;SDS011;68;48.792;9.164;2022-12-07T07:05:55;13.25;;;9.77;;
151;SDS011;68;48.792;9.164;2022-12-07T07:08:24;12.98;;;9.30;;
151;SDS011;68;48.792;9.164;2022-12-07T07:10:50;12.25;;;8.85;;
151;SDS011;68;48.792;9.164;2022-12-07T07:13:17;13.20;;;9.45;;
151;SDS011;68;48.792;9.164;2022-12-07T07:15:44;16.80;;;9.85;;
151;SDS011;68;48.792;9.164;2022-12-07T07:18:11;14.30;;;9.43;;
151;SDS011;68;48.792;9.164;2022-12-07T07:20:38;13.85;;;9.38;;
151;SDS011;68;48.792;9.164;2022-12-07T07:23:05;12.50;;;9.00;;
151;SDS011;68;48.792;9.164;2022-12-07T07:25:34;17.48;;;9.75;;
151;SDS011;68;48.792;9.164;2022-12-07T07:28:01;12.43;;;9.07;;
151;SDS011;68;48.792;9.164;2022-12-07T07:30:28;13.30;;;9.43;;
151;SDS011;68;48.792;9.164;2022-12-07T07:32:56;12.15;;;8.65;;
151;SDS011;68;48.792;9.164;2022-12-07T07:35:23;12.30;;;8.23;;
151;SDS011;68;48.792;9.164;2022-12-07T07:37:50;13.23;;;8.30;;
151;SDS011;68;48.792;9.164;2022-12-07T07:40:17;13.90;;;8.65;;
151;SDS011;68;48.792;9.164;2022-12-07T07:42:47;11.38;;;7.75;;
151;SDS011;68;48.792;9.164;2022-12-07T07:45:14;12.18;;;8.18;;
151;SDS011;68;48.792;9.164;2022-12-07T07:47:41;12.57;;;8.02;;
151;SDS011;68;48.792;9.164;2022-12-07T07:50:09;10.75;;;8.18;;
151;SDS011;68;48.792;9.164;2022-12-07T07:52:36;12.60;;;8.77;;
151;SDS011;68;48.792;9.164;2022-12-07T07:55:03;12.32;;;8.65;;
151;SDS011;68;48.792;9.164;2022-12-07T07:57:30;11.50;;;8.90;;
151;SDS011;68;48.792;9.164;2022-12-07T07:59:59;12.90;;;8.07;;
151;SDS011;68;48.792;9.164;2022-12-07T08:02:25;13.05;;;8.38;;
151;SDS011;68;48.792;9.164;2022-12-07T08:04:54;13.43;;;10.35;;
151;SDS011;68;48.792;9.164;2022-12-07T08:07:21;10.77;;;8.25;;
151;SDS011;68;48.792;9.164;2022-12-07T08:09:48;10.77;;;8.05;;
151;SDS011;68;48.792;9.164;2022-12-07T08:12:15;12.95;;;8.95;;
151;SDS011;68;48.792;9.164;2022-12-07T08:14:41;13.57;;;8.70;;
151;SDS011;68;48.792;9.164;2022-12-07T08:17:10;12.15;;;8.98;;
151;SDS011;68;48.792;9.164;2022-12-07T08:19:37;10.65;;;8.73;;
151;SDS011;68;48.792;9.164;2022-12-07T08:22:04;11.80;;;7.95;;
151;SDS011;68;48.792;9.164;2022-12-07T08:24:32;12.90;;;7.97;;
151;SDS011;68;48.792;9.164;2022-12-07T08:26:59;10.77;;;7.63;;
151;SDS011;68;48.792;9.164;2022-12-07T08:29:26;11.40;;;8.90;;
151;SDS011;68;48.792;9.164;2022-12-07T08:31:53;9.88;;;7.47;;
151;SDS011;68;48.792;9.164;2022-12-07T08:34:21;12.52;;;7.90;;
151;SDS011;68;48.792;9.164;2022-12-07T08:36:48;10.55;;;7.40;;
151;SDS011;68;48.792;9.164;2022-12-07T08:39:15;10.77;;;7.22;;
151;SDS011;68;48.792;9.164;2022-12-07T08:41:42;10.93;;;7.55;;
151;SDS011;68;48.792;9.164;2022-12-07T08:44:08;11.77;;;7.55;;
151;SDS011;68;48.792;9.164;2022-12-07T08:46:36;8.98;;;6.95;;
151;SDS011;68;48.792;9.164;2022-12-07T08:49:05;11.55;;;7.05;;
151;SDS011;68;48.792;9.164;2022-12-07T08:51:39;9.60;;;7.00;;
151;SDS011;68;48.792;9.164;2022-12-07T08:54:07;9.52;;;7.10;;
151;SDS011;68;48.792;9.164;2022-12-07T08:56:37;10.43;;;6.70;;
151;SDS011;68;48.792;9.164;2022-12-07T08:59:05;7.65;;;5.95;;
151;SDS011;68;48.792;9.164;2022-12-07T09:01:32;8.00;;;6.00;;
151;SDS011;68;48.792;9.164;2022-12-07T09:03:59;8.20;;;6.88;;
151;SDS011;68;48.792;9.164;2022-12-07T09:06:26;9.65;;;7.20;;
151;SDS011;68;48.792;9.164;2022-12-07T09:08:56;8.57;;;6.70;;
151;SDS011;68;48.792;9.164;2022-12-07T09:11:25;9.98;;;6.70;;
151;SDS011;68;48.792;9.164;2022-12-07T09:13:51;8.18;;;6.50;;
151;SDS011;68;48.792;9.164;2022-12-07T09:16:18;7.57;;;5.80;;
151;SDS011;68;48.792;9.164;2022-12-07T09:18:45;8.32;;;5.72;;
151;SDS011;68;48.792;9.164;2022-12-07T09:21:12;9.50;;;6.05;;
151;SDS011;68;48.792;9.164;2022-12-07T09:23:38;7.53;;;5.88;;
151;SDS011;68;48.792;9.164;2022-12-07T09:26:08;7.78;;;6.05;;
151;SDS011;68;48.792;9.164;2022-12-07T09:28:35;8.63;;;5.45;;
151;SDS011;68;48.792;9.164;2022-12-07T09:31:02;6.55;;;5.32;;
151;SDS011;68;48.792;9.164;2022-12-07T09:33:30;7.32;;;5.80;;
151;SDS011;68;48.792;9.164;2022-12-07T09:35:58;6.45;;;5.22;;
151;SDS011;68;48.792;9.164;2022-12-07T09:38:27;8.05;;;5.43;;
151;SDS011;68;48.792;9.164;2022-12-07T09:40:54;6.90;;;5.38;;
151;SDS011;68;48.792;9.164;2022-12-07T09:43:23;5.85;;;4.70;;
151;SDS011;68;48.792;9.164;2022-12-07T09:45:52;6.55;;;5.13;;
151;SDS011;68;48.792;9.164;2022-12-07T09:48:22;6.68;;;5.20;;
151;SDS011;68;48.792;9.164;2022-12-07T09:50:55;5.95;;;5.05;;
151;SDS011;68;48.792;9.164;2022-12-07T09:53:24;5.88;;;4.75;;
151;SDS011;68;48.792;9.164;2022-12-07T09:55:53;5.85;;;4.93;;
151;SDS011;68;48.792;9.164;2022-12-07T09:58:21;6.55;;;5.43;;
151;SDS011;68;48.792;9.164;2022-12-07T10:00:52;5.10;;;4.50;;
151;SDS011;68;48.792;9.164;2022-12-07T10:03:21;7.93;;;4.80;;
151;SDS011;68;48.792;9.164;2022-12-07T10:05:49;5.65;;;4.88;;
151;SDS011;68;48.792;9.164;2022-12-07T10:08:17;9.57;;;5.10;;
151;SDS011;68;48.792;9.164;2022-12-07T10:10:45;6.50;;;5.15;;
151;SDS011;68;48.792;9.164;2022-12-07T10:13:15;8.30;;;4.65;;
151;SDS011;68;48.792;9.164;2022-12-07T10:15:48;7.10;;;5.25;;
151;SDS011;68;48.792;9.164;2022-12-07T10:18:21;5.68;;;4.68;;
151;SDS011;68;48.792;9.164;2022-12-07T10:21:00;7.70;;;5.85;;
151;SDS011;68;48.792;9.164;2022-12-07T10:23:29;5.90;;;4.95;;
151;SDS011;68;48.792;9.164;2022-12-07T10:25:56;6.03;;;5.10;;
151;SDS011;68;48.792;9.164;2022-12-07T10:28:23;6.55;;;5.30;;
151;SDS011;68;48.792;9.164;2022-12-07T10:31:00;6.72;;;5.25;;
151;SDS011;68;48.792;9.164;2022-12-07T10:33:31;6.55;;;4.93;;
151;SDS011;68;48.792;9.164;2022-12-07T10:36:01;6.60;;;5.28;;
151;SDS011;68;48.792;9.164;2022-12-07T10:38:44;7.40;;;5.78;;
151;SDS011;68;48.792;9.164;2022-12-07T10:41:12;9.90;;;5.60;;
151;SDS011;68;48.792;9.164;2022-12-07T10:43:46;6.82;;;5.50;;
151;SDS011;68;48.792;9.164;2022-12-07T10:46:20;6.82;;;5.32;;
151;SDS011;68;48.792;9.164;2022-12-07T10:52:14;7.63;;;5.63;;
151;SDS011;68;48.792;9.164;2022-12-07T10:54:52;8.20;;;5.63;;
151;SDS011;68;48.792;9.164;2022-12-07T10:57:37;7.45;;;5.50;;
151;SDS011;68;48.792;9.164;2022-12-07T11:00:15;10.00;;;6.95;;
151;SDS011;68;48.792;9.164;2022-12-07T11:05:56;8.45;;;6.35;;
151;SDS011;68;48.792;9.164;2022-12-07T11:08:37;6.60;;;5.20;;
151;SDS011;68;48.792;9.164;2022-12-07T11:11:13;6.10;;;4.85;;
151;SDS011;68;48.792;9.164;2022-12-07T11:13:44;6.80;;;4.65;;
151;SDS011;68;48.792;9.164;2022-12-07T11:16:21;4.93;;;4.38;;
151;SDS011;68;48.792;9.164;2022-12-07T11:19:05;8.55;;;4.35;;
151;SDS011;68;48.792;9.164;2022-12-07T11:21:51;4.93;;;4.10;;
151;SDS011;68;48.792;9.164;2022-12-07T11:24:24;5.50;;;4.40;;
151;SDS011;68;48.792;9.164;2022-12-07T11:27:05;5.68;;;4.43;;
151;SDS011;68;48.792;9.164;2022-12-07T11:29:47;6.30;;;4.70;;
151;SDS011;68;48.792;9.164;2022-12-07T11:32:29;6.05;;;4.97;;
151;SDS011;68;48.792;9.164;2022-12-07T11:35:09;4.90;;;4.03;;
151;SDS011;68;48.792;9.164;2022-12-07T11:37:44;5.57;;;4.25;;
151;SDS011;68;48.792;9.164;2022-12-07T11:40:14;4.88;;;4.10;;
151;SDS011;68;48.792;9.164;2022-12-07T11:42:49;5.57;;;3.97;;
151;SDS011;68;48.792;9.164;2022-12-07T11:45:23;3.95;;;3.75;;
151;SDS011;68;48.792;9.164;2022-12-07T11:47:53;4.45;;;4.03;;
151;SDS011;68;48.792;9.164;2022-12-07T11:50:25;4.90;;;4.35;;
151;SDS011;68;48.792;9.164;2022-12-07T11:52:58;7.88;;;5.43;;
151;SDS011;68;48.792;9.164;2022-12-07T11:55:30;9.70;;;6.20;;
151;SDS011;68;48.792;9.164;2022-12-07T11:58:09;11.32;;;7.80;;
151;SDS011;68;48.792;9.164;2022-12-07T12:00:47;9.20;;;7.03;;
151;SDS011;68;48.792;9.164;2022-12-07T12:03:20;9.40;;;7.40;;
151;SDS011;68;48.792;9.164;2022-12-07T12:05:56;10.73;;;7.28;;
151;SDS011;68;48.792;9.164;2022-12-07T12:08:26;10.90;;;7.55;;
151;SDS011;68;48.792;9.164;2022-12-07T12:10:59;11.50;;;7.30;;
151;SDS011;68;48.792;9.164;2022-12-07T12:13:51;9.50;;;7.57;;
151;SDS011;68;48.792;9.164;2022-12-07T12:16:36;10.15;;;7.82;;
151;SDS011;68;48.792;9.164;2022-12-07T12:19:16;11.18;;;7.97;;
151;SDS011;68;48.792;9.164;2022-12-07T12:21:53;9.32;;;7.95;;
151;SDS011;68;48.792;9.164;2022-12-07T12:24:26;13.50;;;8.65;;
151;SDS011;68;48.792;9.164;2022-12-07T12:27:01;13.52;;;8.30;;
151;SDS011;68;48.792;9.164;2022-12-07T12:29:31;9.65;;;7.68;;
151;SDS011;68;48.792;9.164;2022-12-07T12:32:07;12.80;;;8.63;;
151;SDS011;68;48.792;9.164;2022-12-07T12:34:40;12.63;;;8.77;;
151;SDS011;68;48.792;9.164;2022-12-07T12:37:39;9.25;;;7.50;;
151;SDS011;68;48.792;9.164;2022-12-07T12:55:41;9.60;;;7.68;;
151;SDS011;68;48.792;9.164;2022-12-07T12:58:42;10.65;;;7.43;;
151;SDS011;68;48.792;9.164;2022-12-07T13:10:35;9.27;;;7.20;;
151;SDS011;68;48.792;9.164;2022-12-07T13:25:21;8.40;;;7.13;;
151;SDS011;68;48.792;9.164;2022-12-07T13:27:57;11.20;;;7.78;;
151;SDS011;68;48.792;9.164;2022-12-07T13:30:27;9.05;;;7.20;;
151;SDS011;68;48.792;9.164;2022-12-07T13:32:57;9.90;;;7.50;;
151;SDS011;68;48.792;9.164;2022-12-07T13:35:32;8.27;;;6.85;;
151;SDS011;68;48.792;9.164;2022-12-07T13:38:04;7.65;;;6.40;;
151;SDS011;68;48.792;9.164;2022-12-07T13:40:32;11.65;;;7.00;;
151;SDS011;68;48.792;9.164;2022-12-07T13:42:59;9.98;;;6.88;;
151;SDS011;68;48.792;9.164;2022-12-07T13:45:28;10.40;;;7.70;;
151;SDS011;68;48.792;9.164;2022-12-07T13:48:19;10.05;;;7.93;;
151;SDS011;68;48.792;9.164;2022-12-07T13:50:53;10.32;;;7.28;;
151;SDS011;68;48.792;9.164;2022-12-07T13:53:21;9.93;;;7.50;;
151;SDS011;68;48.792;9.164;2022-12-07T13:55:48;12.60;;;8.10;;
151;SDS011;68;48.792;9.164;2022-12-07T13:58:15;10.65;;;8.20;;
151;SDS011;68;48.792;9.164;2022-12-07T14:00:43;11.13;;;8.35;;
151;SDS011;68;48.792;9.164;2022-12-07T14:03:28;12.15;;;8.50;;
151;SDS011;68;48.792;9.164;2022-12-07T14:06:04;13.10;;;8.02;;
151;SDS011;68;48.792;9.164;2022-12-07T14:08:42;9.35;;;8.02;;
151;SDS011;68;48.792;9.164;2022-12-07T14:11:12;12.98;;;8.25;;
151;SDS011;68;48.792;9.164;2022-12-07T14:13:44;11.15;;;7.70;;
151;SDS011;68;48.792;9.164;2022-12-07T14:16:20;11.80;;;7.80;;
151;SDS011;68;48.792;9.164;2022-12-07T14:18:52;10.63;;;7.80;;
151;SDS011;68;48.792;9.164;2022-12-07T14:21:20;9.80;;;7.15;;
151;SDS011;68;48.792;9.164;2022-12-07T14:24:02;12.45;;;7.95;;
151;SDS011;68;48.792;9.164;2022-12-07T14:26:41;10.75;;;7.60;;
151;SDS011;68;48.792;9.164;2022-12-07T14:32:01;12.55;;;9.45;;
151;SDS011;68;48.792;9.164;2022-12-07T14:34:54;10.55;;;7.53;;
151;SDS011;68;48.792;9.164;2022-12-07T14:37:22;10.80;;;7.88;;
151;SDS011;68;48.792;9.164;2022-12-07T14:39:49;11.90;;;9.05;;
151;SDS011;68;48.792;9.164;2022-12-07T14:42:16;10.05;;;7.50;;
151;SDS011;68;48.792;9.164;2022-12-07T14:44:43;13.25;;;8.23;;
151;SDS011;68;48.792;9.164;2022-12-07T14:47:10;11.38;;;8.30;;
151;SDS011;68;48.792;9.164;2022-12-07T14:49:37;10.45;;;8.23;;
151;SDS011;68;48.792;9.164;2022-12-07T14:52:05;10.77;;;8.52;;
151;SDS011;68;48.792;9.164;2022-12-07T14:54:36;12.95;;;9.18;;
151;SDS011;68;48.792;9.164;2022-12-07T14:57:03;10.15;;;7.88;;
151;SDS011;68;48.792;9.164;2022-12-07T14:59:30;12.80;;;8.43;;
151;SDS011;68;48.792;9.164;2022-12-07T15:01:56;11.98;;;8.57;;
151;SDS011;68;48.792;9.164;2022-12-07T15:04:23;15.68;;;8.18;;
151;SDS011;68;48.792;9.164;2022-12-07T15:06:56;11.98;;;8.73;;
151;SDS011;68;48.792;9.164;2022-12-07T15:09:25;11.02;;;8.10;;
151;SDS011;68;48.792;9.164;2022-12-07T15:11:52;13.20;;;8.35;;
151;SDS011;68;48.792;9.164;2022-12-07T15:14:19;9.93;;;8.10;;
151;SDS011;68;48.792;9.164;2022-12-07T15:16:46;9.73;;;7.80;;
151;SDS011;68;48.792;9.164;2022-12-07T15:19:13;10.23;;;7.57;;
151;SDS011;68;48.792;9.164;2022-12-07T15:21:41;18.83;;;8.23;;
151;SDS011;68;48.792;9.164;2022-12-07T15:24:09;10.60;;;7.22;;
151;SDS011;68;48.792;9.164;2022-12-07T15:26:37;9.50;;;7.45;;
151;SDS011;68;48.792;9.164;2022-12-07T15:29:06;11.80;;;7.88;;
151;SDS011;68;48.792;9.164;2022-12-07T15:31:33;10.52;;;7.50;;
151;SDS011;68;48.792;9.164;2022-12-07T15:34:01;9.95;;;7.10;;
151;SDS011;68;48.792;9.164;2022-12-07T15:36:30;9.68;;;7.47;;
151;SDS011;68;48.792;9.164;2022-12-07T15:38:57;10.73;;;7.70;;
151;SDS011;68;48.792;9.164;2022-12-07T15:41:25;9.30;;;7.25;;
151;SDS011;68;48.792;9.164;2022-12-07T15:43:53;11.98;;;7.30;;
151;SDS011;68;48.792;9.164;2022-12-07T15:46:37;11.90;;;8.23;;
151;SDS011;68;48.792;9.164;2022-12-07T15:49:06;10.68;;;7.35;;
151;SDS011;68;48.792;9.164;2022-12-07T15:51:37;13.40;;;8.30;;
151;SDS011;68;48.792;9.164;2022-12-07T15:54:04;10.68;;;8.50;;
151;SDS011;68;48.792;9.164;2022-12-07T15:56:31;13.48;;;9.15;;
151;SDS011;68;48.792;9.164;2022-12-07T15:58:59;13.50;;;8.98;;
151;SDS011;68;48.792;9.164;2022-12-07T16:01:26;11.50;;;8.98;;
151;SDS011;68;48.792;9.164;2022-12-07T16:03:53;13.95;;;9.45;;
151;SDS011;68;48.792;9.164;2022-12-07T16:06:20;14.40;;;10.40;;
151;SDS011;68;48.792;9.164;2022-12-07T16:08:46;15.68;;;10.45;;
151;SDS011;68;48.792;9.164;2022-12-07T16:11:13;15.27;;;9.95;;
151;SDS011;68;48.792;9.164;2022-12-07T16:13:40;15.27;;;10.60;;
151;SDS011;68;48.792;9.164;2022-12-07T16:16:10;16.30;;;11.32;;
151;SDS011;68;48.792;9.164;2022-12-07T16:18:39;16.30;;;10.75;;
151;SDS011;68;48.792;9.164;2022-12-07T16:21:07;14.15;;;10.35;;
151;SDS011;68;48.792;9.164;2022-12-07T16:23:34;14.43;;;10.50;;
151;SDS011;68;48.792;9.164;2022-12-07T16:26:05;14.10;;;9.70;;
151;SDS011;68;48.792;9.164;2022-12-07T16:28:32;16.05;;;10.93;;
151;SDS011;68;48.792;9.164;2022-12-07T16:31:00;18.30;;;11.80;;
151;SDS011;68;48.792;9.164;2022-12-07T16:33:29;18.17;;;12.18;;
151;SDS011;68;48.792;9.164;2022-12-07T16:35:57;16.08;;;10.70;;
151;SDS011;68;48.792;9.164;2022-12-07T16:38:24;16.77;;;11.50;;
151;SDS011;68;48.792;9.164;2022-12-07T16:40:51;14.50;;;10.27;;
151;SDS011;68;48.792;9.164;2022-12-07T16:43:19;15.18;;;10.05;;
151;SDS011;68;48.792;9.164;2022-12-07T16:45:46;17.33;;;11.65;;